createdAt,value
2023-05-14T00:00:20.888Z,16.30
2023-05-14T00:02:55.271Z,16.20
2023-05-14T00:05:29.261Z,16.20
2023-05-14T00:08:04.550Z,16.20
2023-05-14T00:10:38.779Z,16.10
2023-05-14T00:13:14.463Z,16.10
2023-05-14T00:15:48.259Z,16.00
2023-05-14T00:18:22.308Z,16.00
2023-05-14T00:20:58.473Z,16.00
2023-05-14T00:23:32.210Z,15.90
2023-05-14T00:26:06.672Z,15.90
2023-05-14T00:28:42.268Z,15.80
2023-05-14T00:31:16.062Z,15.80
2023-05-14T00:33:49.624Z,15.80
2023-05-14T00:36:23.552Z,15.70
2023-05-14T00:38:58.016Z,15.70
2023-05-14T00:41:33.099Z,15.60
2023-05-14T00:44:08.380Z,15.60
2023-05-14T00:46:43.783Z,15.60
2023-05-14T00:49:18.734Z,15.50
2023-05-14T00:51:53.215Z,15.50
2023-05-14T00:54:30.828Z,15.40
2023-05-14T00:57:08.412Z,15.40
2023-05-14T00:59:44.061Z,15.40
2023-05-14T01:02:18.155Z,15.40
2023-05-14T01:04:52.495Z,15.40
2023-05-14T01:07:39.521Z,15.30
2023-05-14T01:10:18.890Z,15.30
2023-05-14T01:13:06.234Z,15.30
2023-05-14T01:15:44.243Z,15.20
2023-05-14T01:18:21.635Z,15.20
2023-05-14T01:20:56.701Z,15.20
2023-05-14T01:23:32.008Z,15.20
2023-05-14T01:26:06.370Z,15.10
2023-05-14T01:28:41.441Z,15.10
2023-05-14T01:31:26.578Z,15.10
2023-05-14T01:34:03.689Z,15.00
2023-05-14T01:36:39.960Z,15.00
2023-05-14T01:39:16.626Z,15.00
2023-05-14T01:41:51.756Z,14.90
2023-05-14T01:44:26.125Z,14.90
2023-05-14T01:47:00.936Z,14.90
2023-05-14T01:49:37.262Z,14.80
2023-05-14T01:52:11.546Z,14.80
2023-05-14T01:54:47.934Z,14.80
2023-05-14T01:57:23.157Z,14.70
2023-05-14T01:59:56.811Z,14.70
2023-05-14T02:02:30.446Z,14.70
2023-05-14T02:05:06.794Z,14.70
2023-05-14T02:07:42.005Z,14.60
2023-05-14T02:10:17.185Z,14.50
2023-05-14T02:12:53.568Z,14.40
2023-05-14T02:15:27.253Z,14.50
2023-05-14T02:18:00.900Z,14.40
2023-05-14T02:20:34.958Z,14.40
2023-05-14T02:23:09.142Z,14.40
2023-05-14T02:25:45.216Z,14.30
2023-05-14T02:28:21.103Z,14.30
2023-05-14T02:31:01.035Z,14.30
2023-05-14T02:33:35.244Z,14.30
2023-05-14T02:36:09.601Z,14.20
2023-05-14T02:38:44.718Z,14.20
2023-05-14T02:41:20.184Z,14.20
2023-05-14T02:43:55.121Z,14.10
2023-05-14T02:46:29.748Z,14.10
2023-05-14T02:49:03.458Z,14.10
2023-05-14T02:51:37.150Z,14.00
2023-05-14T02:54:11.014Z,14.00
2023-05-14T02:56:47.355Z,14.00
2023-05-14T02:59:22.437Z,13.90
2023-05-14T03:01:56.819Z,13.90
2023-05-14T03:04:30.465Z,13.90
2023-05-14T03:07:05.212Z,13.90
2023-05-14T03:09:41.261Z,13.80
2023-05-14T03:12:16.530Z,13.80
2023-05-14T03:14:50.434Z,13.80
2023-05-14T03:17:24.032Z,13.80
2023-05-14T03:19:59.389Z,13.80
2023-05-14T03:22:33.197Z,13.70
2023-05-14T03:25:17.974Z,13.70
2023-05-14T03:27:53.493Z,13.60
2023-05-14T03:30:27.424Z,13.60
2023-05-14T03:33:03.438Z,13.60
2023-05-14T03:35:38.998Z,13.60
2023-05-14T03:38:14.585Z,13.50
2023-05-14T03:40:48.730Z,13.50
2023-05-14T03:43:24.625Z,13.50
2023-05-14T03:45:58.397Z,13.30
2023-05-14T03:48:32.332Z,13.50
2023-05-14T03:51:06.519Z,13.40
2023-05-14T03:53:40.515Z,13.40
2023-05-14T03:56:16.502Z,13.40
2023-05-14T03:58:53.595Z,13.40
2023-05-14T04:01:27.781Z,13.30
2023-05-14T04:04:01.513Z,13.30
2023-05-14T04:06:36.569Z,13.30
2023-05-14T04:09:11.002Z,13.30
2023-05-14T04:11:45.099Z,13.30
2023-05-14T04:14:21.526Z,13.30
2023-05-14T04:16:56.122Z,13.30
2023-05-14T04:19:33.934Z,13.30
2023-05-14T04:22:08.210Z,13.20
2023-05-14T04:24:42.001Z,13.20
2023-05-14T04:27:22.483Z,13.30
2023-05-14T04:29:57.388Z,13.20
2023-05-14T04:32:31.480Z,13.40
2023-05-14T04:35:06.401Z,13.30
2023-05-14T04:37:54.335Z,13.30
2023-05-14T04:40:31.430Z,13.30
2023-05-14T04:43:06.614Z,13.30
2023-05-14T04:45:43.137Z,13.30
2023-05-14T04:48:18.762Z,13.30
2023-05-14T04:50:56.161Z,13.30
2023-05-14T04:53:29.975Z,13.40
2023-05-14T04:56:04.074Z,13.10
2023-05-14T04:58:38.510Z,13.40
2023-05-14T05:01:14.202Z,13.50
2023-05-14T05:03:58.194Z,13.50
2023-05-14T05:06:35.424Z,13.50
2023-05-14T05:09:11.243Z,13.60
2023-05-14T05:11:47.667Z,13.70
2023-05-14T05:14:24.816Z,13.70
2023-05-14T05:17:00.793Z,13.80
2023-05-14T05:19:43.834Z,13.80
2023-05-14T05:22:19.093Z,13.90
2023-05-14T05:25:05.692Z,13.90
2023-05-14T05:27:40.479Z,13.90
2023-05-14T05:30:14.717Z,14.00
2023-05-14T05:32:52.405Z,14.00
2023-05-14T05:35:29.137Z,14.00
2023-05-14T05:38:02.805Z,14.10
2023-05-14T05:40:37.264Z,14.10
2023-05-14T05:43:11.457Z,14.20
2023-05-14T05:45:46.000Z,14.20
2023-05-14T05:48:22.276Z,14.30
2023-05-14T05:50:56.421Z,14.30
2023-05-14T05:53:30.805Z,14.40
2023-05-14T05:56:04.521Z,14.50
2023-05-14T05:58:38.425Z,14.50
2023-05-14T06:01:12.759Z,14.60
2023-05-14T06:03:51.368Z,14.70
2023-05-14T06:06:26.900Z,14.80
2023-05-14T06:09:01.880Z,14.90
2023-05-14T06:11:36.436Z,15.00
2023-05-14T06:14:10.052Z,15.00
2023-05-14T06:16:44.229Z,15.20
2023-05-14T06:19:19.442Z,15.20
2023-05-14T06:21:53.658Z,15.30
2023-05-14T06:24:27.042Z,15.40
2023-05-14T06:27:00.729Z,15.50
2023-05-14T06:29:36.934Z,15.60
2023-05-14T06:32:11.017Z,15.70
2023-05-14T06:34:46.120Z,15.80
2023-05-14T06:37:20.024Z,15.90
2023-05-14T06:39:55.262Z,16.00
2023-05-14T06:42:30.990Z,16.10
2023-05-14T06:45:05.741Z,16.20
2023-05-14T06:47:40.685Z,16.30
2023-05-14T06:50:41.680Z,16.40
2023-05-14T06:53:16.195Z,16.60
2023-05-14T06:55:50.978Z,16.70
2023-05-14T06:58:26.935Z,16.80
2023-05-14T07:01:01.043Z,16.90
2023-05-14T07:03:34.955Z,17.00
2023-05-14T07:06:12.514Z,17.10
2023-05-14T07:08:47.562Z,17.20
2023-05-14T07:11:22.584Z,17.40
2023-05-14T07:13:56.862Z,17.50
2023-05-14T07:16:30.605Z,17.60
2023-05-14T07:19:04.487Z,17.80
2023-05-14T07:21:40.404Z,17.90
2023-05-14T07:24:14.542Z,18.00
2023-05-14T07:26:48.233Z,18.10
2023-05-14T07:29:21.821Z,18.30
2023-05-14T07:31:55.484Z,18.40
2023-05-14T07:34:29.282Z,18.50
2023-05-14T07:37:04.838Z,18.60
2023-05-14T07:39:38.482Z,18.50
2023-05-14T07:42:19.327Z,18.90
2023-05-14T07:44:58.463Z,19.00
2023-05-14T07:47:32.367Z,19.20
2023-05-14T07:50:07.828Z,19.30
2023-05-14T07:52:46.242Z,19.40
2023-05-14T07:55:22.127Z,19.50
2023-05-14T07:57:57.452Z,19.60
2023-05-14T08:00:32.540Z,19.70
2023-05-14T08:03:07.881Z,19.80
2023-05-14T08:05:41.607Z,20.00
2023-05-14T08:08:17.168Z,20.10
2023-05-14T08:10:52.436Z,20.20
2023-05-14T08:13:26.277Z,20.30
2023-05-14T08:16:00.474Z,20.50
2023-05-14T08:18:34.664Z,20.60
2023-05-14T08:21:08.943Z,20.70
2023-05-14T08:23:44.120Z,20.90
2023-05-14T08:26:18.530Z,20.90
2023-05-14T08:28:51.956Z,21.00
2023-05-14T08:31:28.225Z,21.20
2023-05-14T08:34:02.056Z,21.20
2023-05-14T08:36:36.244Z,21.40
2023-05-14T08:39:11.886Z,21.50
2023-05-14T08:41:46.621Z,21.60
2023-05-14T08:44:22.809Z,21.70
2023-05-14T08:46:57.242Z,21.80
2023-05-14T08:49:41.703Z,21.90
2023-05-14T08:52:17.468Z,22.00
2023-05-14T08:54:55.040Z,22.10
2023-05-14T08:57:31.356Z,22.20
2023-05-14T09:00:08.439Z,22.30
2023-05-14T09:02:43.364Z,22.40
2023-05-14T09:05:20.675Z,22.50
2023-05-14T09:07:54.800Z,22.60
2023-05-14T09:10:30.229Z,22.70
2023-05-14T09:13:08.012Z,22.80
2023-05-14T09:15:43.984Z,22.90
2023-05-14T09:18:18.358Z,23.00
2023-05-14T09:20:54.084Z,23.10
2023-05-14T09:23:28.390Z,23.20
2023-05-14T09:26:08.858Z,23.30
2023-05-14T09:28:43.524Z,23.40
2023-05-14T09:31:17.873Z,23.50
2023-05-14T09:33:54.852Z,23.60
2023-05-14T09:36:31.081Z,23.70
2023-05-14T09:39:06.555Z,23.80
2023-05-14T09:41:44.811Z,23.90
2023-05-14T09:44:20.516Z,24.00
2023-05-14T09:46:55.051Z,24.00
2023-05-14T09:49:31.815Z,24.10
2023-05-14T09:52:08.591Z,24.20
2023-05-14T09:54:42.480Z,24.30
2023-05-14T09:57:17.417Z,24.30
2023-05-14T09:59:51.397Z,24.40
2023-05-14T10:02:30.452Z,24.50
2023-05-14T10:05:08.800Z,24.50
2023-05-14T10:07:50.707Z,24.60
2023-05-14T10:10:31.103Z,24.60
2023-05-14T10:13:14.013Z,24.70
2023-05-14T10:15:58.561Z,24.80
2023-05-14T10:18:41.450Z,24.90
2023-05-14T10:21:18.096Z,25.00
2023-05-14T10:23:53.578Z,24.90
2023-05-14T10:26:28.603Z,25.10
2023-05-14T10:29:04.836Z,25.20
2023-05-14T10:31:55.548Z,25.40
2023-05-14T10:34:40.752Z,25.40
2023-05-14T10:37:17.665Z,25.60
2023-05-14T10:39:55.082Z,25.60
2023-05-14T10:42:33.352Z,25.70
2023-05-14T10:45:16.936Z,25.80
2023-05-14T10:47:52.539Z,25.90
2023-05-14T10:50:28.569Z,25.90
2023-05-14T10:53:04.022Z,26.00
2023-05-14T10:55:39.836Z,26.10
2023-05-14T10:58:16.572Z,26.20
2023-05-14T11:00:56.865Z,26.30
2023-05-14T11:03:33.515Z,26.30
2023-05-14T11:06:10.335Z,26.40
2023-05-14T11:08:46.582Z,26.50
2023-05-14T11:11:20.952Z,26.60
2023-05-14T11:13:58.429Z,26.60
2023-05-14T11:16:35.398Z,26.70
2023-05-14T11:19:10.289Z,26.80
2023-05-14T11:21:44.105Z,26.80
2023-05-14T11:24:21.057Z,26.90
2023-05-14T11:26:58.465Z,27.00
2023-05-14T11:29:32.326Z,27.00
2023-05-14T11:32:09.103Z,27.00
2023-05-14T11:34:45.081Z,27.00
2023-05-14T11:37:21.152Z,26.90
2023-05-14T11:39:58.341Z,26.90
2023-05-14T11:42:34.041Z,26.80
2023-05-14T11:45:12.992Z,26.80
2023-05-14T11:47:48.808Z,26.90
2023-05-14T11:50:25.054Z,26.90
2023-05-14T11:52:59.461Z,27.00
2023-05-14T11:55:36.391Z,27.00
2023-05-14T11:58:10.276Z,27.00
2023-05-14T12:00:46.966Z,26.80
2023-05-14T12:03:26.135Z,27.00
2023-05-14T12:06:01.594Z,26.90
2023-05-14T12:08:35.841Z,26.80
2023-05-14T12:11:12.242Z,26.80
2023-05-14T12:13:47.501Z,26.70
2023-05-14T12:16:22.833Z,26.70
2023-05-14T12:19:02.249Z,26.80
2023-05-14T12:21:37.215Z,26.80
2023-05-14T12:24:13.057Z,26.90
2023-05-14T12:26:47.934Z,27.00
2023-05-14T12:29:27.378Z,27.10
2023-05-14T12:32:04.432Z,27.20
2023-05-14T12:34:40.540Z,27.30
2023-05-14T12:37:14.597Z,27.30
2023-05-14T12:39:48.618Z,27.30
2023-05-14T12:42:23.499Z,27.40
2023-05-14T12:45:04.259Z,27.40
2023-05-14T12:47:38.446Z,27.50
2023-05-14T12:50:13.955Z,27.50
2023-05-14T12:52:48.273Z,27.60
2023-05-14T12:55:24.061Z,27.70
2023-05-14T12:57:59.784Z,27.70
2023-05-14T13:00:33.239Z,27.80
2023-05-14T13:03:06.740Z,27.80
2023-05-14T13:05:42.758Z,27.80
2023-05-14T13:08:18.062Z,27.90
2023-05-14T13:10:53.849Z,27.90
2023-05-14T13:13:29.430Z,27.90
2023-05-14T13:16:03.914Z,27.90
2023-05-14T13:18:38.959Z,27.90
2023-05-14T13:21:14.554Z,27.90
2023-05-14T13:23:49.028Z,27.90
2023-05-14T13:26:28.078Z,27.90
2023-05-14T13:29:04.924Z,27.90
2023-05-14T13:31:38.786Z,27.90
2023-05-14T13:34:13.463Z,27.90
2023-05-14T13:36:50.007Z,27.90
2023-05-14T13:39:27.187Z,27.80
2023-05-14T13:42:01.375Z,27.80
2023-05-14T13:44:36.351Z,27.80
2023-05-14T13:47:12.742Z,27.70
2023-05-14T13:49:58.709Z,27.70
2023-05-14T13:52:34.126Z,27.60
2023-05-14T13:55:09.915Z,27.60
2023-05-14T13:57:44.425Z,27.60
2023-05-14T14:00:19.023Z,27.60
2023-05-14T14:02:52.983Z,27.60
2023-05-14T14:05:28.883Z,27.60
2023-05-14T14:08:17.909Z,27.60
2023-05-14T14:10:56.517Z,27.60
2023-05-14T14:13:34.530Z,27.60
2023-05-14T14:16:08.488Z,27.50
2023-05-14T14:18:43.769Z,27.50
2023-05-14T14:21:18.576Z,27.50
2023-05-14T14:23:54.036Z,27.40
2023-05-14T14:26:29.130Z,27.40
2023-05-14T14:29:02.943Z,27.30
2023-05-14T14:31:39.353Z,27.40
2023-05-14T14:34:15.122Z,27.30
2023-05-14T14:36:48.580Z,27.30
2023-05-14T14:39:25.369Z,27.30
2023-05-14T14:42:00.629Z,27.20
2023-05-14T14:44:34.135Z,27.20
2023-05-14T14:47:08.725Z,27.20
2023-05-14T14:49:42.245Z,27.20
2023-05-14T14:52:15.724Z,27.20
2023-05-14T14:54:52.988Z,27.10
2023-05-14T14:57:28.123Z,27.10
2023-05-14T15:00:02.691Z,27.10
2023-05-14T15:02:38.784Z,27.10
2023-05-14T15:05:12.413Z,27.00
2023-05-14T15:07:46.497Z,27.10
2023-05-14T15:10:22.087Z,27.00
2023-05-14T15:12:57.121Z,27.00
2023-05-14T15:15:32.568Z,27.00
2023-05-14T15:18:07.033Z,27.00
2023-05-14T15:20:41.150Z,27.00
2023-05-14T15:23:16.352Z,27.00
2023-05-14T15:25:51.734Z,26.90
2023-05-14T15:28:27.072Z,26.90
2023-05-14T15:31:02.866Z,26.90
2023-05-14T15:33:38.089Z,26.80
2023-05-14T15:36:13.533Z,26.90
2023-05-14T15:38:47.860Z,26.80
2023-05-14T15:41:25.747Z,26.80
2023-05-14T15:44:04.106Z,26.80
2023-05-14T15:46:38.541Z,26.70
2023-05-14T15:49:13.793Z,26.70
2023-05-14T15:51:47.357Z,26.70
2023-05-14T15:54:21.068Z,26.60
2023-05-14T15:56:57.288Z,26.60
2023-05-14T15:59:30.815Z,26.60
2023-05-14T16:02:05.864Z,26.50
2023-05-14T16:04:40.242Z,26.50
2023-05-14T16:07:15.566Z,26.50
2023-05-14T16:09:51.238Z,26.40
2023-05-14T16:12:26.575Z,26.40
2023-05-14T16:15:03.445Z,26.40
2023-05-14T16:17:37.380Z,26.30
2023-05-14T16:20:14.127Z,26.30
2023-05-14T16:22:49.250Z,26.30
2023-05-14T16:25:23.115Z,26.20
2023-05-14T16:27:58.510Z,26.20
2023-05-14T16:30:33.232Z,26.10
2023-05-14T16:33:06.888Z,26.00
2023-05-14T16:35:42.796Z,26.00
2023-05-14T16:38:17.283Z,25.90
2023-05-14T16:40:50.695Z,25.90
2023-05-14T16:43:26.088Z,25.80
2023-05-14T16:46:00.091Z,25.80
2023-05-14T16:48:35.007Z,25.70
2023-05-14T16:51:09.748Z,25.70
2023-05-14T16:53:43.616Z,25.70
2023-05-14T16:56:17.627Z,25.60
2023-05-14T16:58:52.767Z,25.60
2023-05-14T17:01:28.970Z,25.60
2023-05-14T17:04:02.951Z,25.60
2023-05-14T17:06:37.084Z,25.50
2023-05-14T17:09:10.664Z,25.50
2023-05-14T17:11:44.633Z,25.40
2023-05-14T17:14:19.793Z,25.40
2023-05-14T17:16:53.927Z,25.30
2023-05-14T17:19:27.620Z,25.30
2023-05-14T17:22:04.476Z,25.20
2023-05-14T17:24:39.810Z,25.20
2023-05-14T17:27:18.975Z,25.10
2023-05-14T17:29:54.281Z,25.00
2023-05-14T17:32:31.948Z,25.00
2023-05-14T17:35:06.645Z,24.90
2023-05-14T17:37:43.117Z,24.90
2023-05-14T17:40:17.120Z,24.90
2023-05-14T17:42:50.980Z,24.80
2023-05-14T17:45:26.663Z,24.70
2023-05-14T17:48:01.091Z,24.70
2023-05-14T17:50:34.868Z,24.70
2023-05-14T17:53:08.710Z,24.60
2023-05-14T17:55:43.982Z,24.60
2023-05-14T17:58:17.868Z,24.50
2023-05-14T18:00:53.241Z,24.50
2023-05-14T18:03:27.315Z,24.50
2023-05-14T18:06:01.299Z,24.40
2023-05-14T18:08:36.717Z,24.40
2023-05-14T18:11:10.618Z,24.40
2023-05-14T18:13:45.676Z,24.30
2023-05-14T18:16:21.056Z,24.30
2023-05-14T18:18:56.592Z,24.30
2023-05-14T18:21:31.146Z,24.30
2023-05-14T18:24:04.733Z,24.20
2023-05-14T18:26:38.087Z,24.20
2023-05-14T18:29:11.988Z,24.20
2023-05-14T18:31:47.346Z,24.10
2023-05-14T18:34:20.955Z,24.10
2023-05-14T18:36:54.530Z,24.10
2023-05-14T18:39:30.504Z,24.00
2023-05-14T18:42:04.130Z,24.00
2023-05-14T18:44:39.441Z,24.00
2023-05-14T18:47:14.268Z,23.90
2023-05-14T18:49:50.708Z,23.90
2023-05-14T18:52:24.781Z,23.90
2023-05-14T18:54:59.401Z,23.80
2023-05-14T18:57:34.138Z,23.80
2023-05-14T19:00:10.387Z,23.80
2023-05-14T19:02:46.961Z,23.70
2023-05-14T19:05:21.008Z,23.70
2023-05-14T19:07:54.891Z,23.60
2023-05-14T19:10:28.420Z,23.50
2023-05-14T19:13:04.375Z,23.50
2023-05-14T19:15:38.733Z,23.50
2023-05-14T19:18:17.720Z,23.40
2023-05-14T19:20:51.991Z,23.30
2023-05-14T19:23:26.140Z,23.30
2023-05-14T19:26:00.413Z,23.30
2023-05-14T19:28:35.973Z,23.20
2023-05-14T19:31:09.794Z,23.10
2023-05-14T19:33:44.875Z,23.00
2023-05-14T19:36:18.639Z,23.00
2023-05-14T19:38:53.537Z,22.90
2023-05-14T19:41:28.090Z,22.90
2023-05-14T19:44:01.555Z,22.90
2023-05-14T19:46:36.620Z,22.80
2023-05-14T19:49:12.075Z,22.70
2023-05-14T19:51:45.437Z,22.70
2023-05-14T19:54:21.416Z,22.60
2023-05-14T19:56:56.220Z,22.60
2023-05-14T19:59:30.409Z,22.50
2023-05-14T20:02:04.758Z,22.40
2023-05-14T20:04:41.295Z,22.40
2023-05-14T20:07:15.714Z,22.40
2023-05-14T20:09:49.295Z,22.30
2023-05-14T20:12:23.139Z,22.30
2023-05-14T20:14:57.077Z,22.20
2023-05-14T20:17:31.583Z,22.20
2023-05-14T20:20:10.214Z,22.10
2023-05-14T20:22:45.152Z,22.10
2023-05-14T20:25:19.368Z,22.00
2023-05-14T20:27:53.268Z,22.00
2023-05-14T20:30:27.779Z,21.90
2023-05-14T20:33:01.647Z,21.90
2023-05-14T20:35:37.372Z,21.90
2023-05-14T20:38:13.726Z,21.80
2023-05-14T20:40:47.991Z,21.80
2023-05-14T20:43:22.328Z,21.80
2023-05-14T20:46:00.474Z,21.70
2023-05-14T20:48:34.390Z,21.70
2023-05-14T20:51:12.585Z,21.60
2023-05-14T20:53:46.934Z,21.60
2023-05-14T20:56:21.000Z,21.60
2023-05-14T20:58:54.607Z,21.50
2023-05-14T21:01:28.088Z,21.50
2023-05-14T21:04:02.304Z,21.40
2023-05-14T21:06:37.660Z,21.30
2023-05-14T21:09:12.190Z,21.30
2023-05-14T21:11:46.074Z,21.30
2023-05-14T21:14:21.598Z,21.20
2023-05-14T21:16:55.350Z,21.10
2023-05-14T21:19:30.468Z,21.10
2023-05-14T21:22:08.996Z,21.10
2023-05-14T21:24:44.232Z,21.10
2023-05-14T21:27:18.124Z,21.00
2023-05-14T21:29:51.580Z,20.90
2023-05-14T21:32:25.943Z,20.90
2023-05-14T21:35:00.802Z,20.80
2023-05-14T21:37:36.460Z,20.80
2023-05-14T21:40:12.349Z,20.70
2023-05-14T21:42:46.282Z,20.70
2023-05-14T21:45:23.642Z,20.60
2023-05-14T21:48:00.138Z,20.60
2023-05-14T21:50:36.312Z,20.60
2023-05-14T21:53:11.442Z,20.50
2023-05-14T21:55:45.234Z,20.50
2023-05-14T21:58:19.348Z,20.40
2023-05-14T22:00:53.022Z,20.40
2023-05-14T22:03:27.760Z,20.30
2023-05-14T22:06:01.754Z,20.30
2023-05-14T22:08:36.752Z,20.30
2023-05-14T22:11:10.509Z,20.20
2023-05-14T22:13:44.006Z,20.20
2023-05-14T22:16:19.565Z,20.10
2023-05-14T22:18:53.333Z,20.10
2023-05-14T22:21:27.990Z,19.90
2023-05-14T22:24:03.710Z,20.00
2023-05-14T22:26:37.953Z,19.90
2023-05-14T22:29:11.322Z,19.90
2023-05-14T22:31:44.803Z,19.80
2023-05-14T22:34:19.592Z,19.80
2023-05-14T22:36:53.882Z,19.70
2023-05-14T22:39:29.039Z,19.70
2023-05-14T22:42:02.621Z,19.70
2023-05-14T22:44:37.182Z,19.60
2023-05-14T22:47:11.177Z,19.60
2023-05-14T22:49:44.966Z,19.50
2023-05-14T22:52:20.323Z,19.40
2023-05-14T22:54:55.769Z,19.40
2023-05-14T22:57:32.874Z,19.40
2023-05-14T23:00:09.382Z,19.30
2023-05-14T23:02:43.417Z,19.20
2023-05-14T23:05:18.213Z,19.20
2023-05-14T23:07:52.258Z,19.20
2023-05-14T23:10:28.986Z,19.10
2023-05-14T23:13:02.498Z,19.00
2023-05-14T23:15:36.630Z,19.00
2023-05-14T23:18:12.140Z,19.00
2023-05-14T23:20:49.352Z,18.90
2023-05-14T23:23:23.606Z,18.90
2023-05-14T23:25:58.743Z,18.90
2023-05-14T23:28:33.481Z,18.80
2023-05-14T23:31:07.492Z,18.80
2023-05-14T23:33:41.096Z,18.80
2023-05-14T23:36:14.999Z,18.70
2023-05-14T23:38:50.335Z,18.70
2023-05-14T23:41:25.166Z,18.60
2023-05-14T23:43:58.862Z,18.60
2023-05-14T23:46:32.732Z,18.60
2023-05-14T23:49:07.018Z,18.50
2023-05-14T23:51:40.774Z,18.50
2023-05-14T23:54:17.236Z,18.50
2023-05-14T23:56:52.816Z,18.40
2023-05-14T23:59:26.680Z,18.40
